powered by Meteolive.it
Dati meteo   Attuali  Passati Ogni 3 ore 7 Giorni 15 Giorni Avvisi Meteo Mappe meteo
Milano / Linate, Italy
Alba: 4:50 AM UTC1
Tramonto: 8:06 PM UTC1
 Lat: 45.42N, Lon: 9.27E
ICAO Usato: LIML
Condizioni Meteo Attuali Aggiornate: 12.07.2018 alle 16:20 LT
Parz Nuvoloso
Parz Nuvoloso
Parz Nuvoloso
N/D
Temp: 27°C
Umidita': 62%
Direz/Vel. Vento: SE 06 KTS raffiche
Pressione: 1015 hPa
Punto di rugiada: 19°C
Temperatura percepita: 28°C
Visibilitą: N/D
Temperatura percepita in
presenza di vento (Wind Chill)
:
N/D
T. max (ultime 24 ore): 26°C
T. min (ultime 24 ore): 20°C


METAR ORIGINALE
LIML 121220Z 14006KT 090V190 8000 FEW030 27/19 Q1015 NOSIG